sensor_id;sensor_type;location;lat;lon;timestamp;P1;durP1;ratioP1;P2;durP2;ratioP2
10116;SDS011;5098;48.792;9.012;2023-04-30T00:00:24;5.33;;;4.70;;
10116;SDS011;5098;48.792;9.012;2023-04-30T00:02:50;4.87;;;4.47;;
10116;SDS011;5098;48.792;9.012;2023-04-30T00:05:17;5.40;;;4.77;;
10116;SDS011;5098;48.792;9.012;2023-04-30T00:07:43;5.70;;;5.17;;
10116;SDS011;5098;48.792;9.012;2023-04-30T00:10:09;5.47;;;4.80;;
10116;SDS011;5098;48.792;9.012;2023-04-30T00:12:36;5.80;;;5.20;;
10116;SDS011;5098;48.792;9.012;2023-04-30T00:15:02;5.93;;;5.43;;
10116;SDS011;5098;48.792;9.012;2023-04-30T00:17:28;6.50;;;5.73;;
10116;SDS011;5098;48.792;9.012;2023-04-30T00:19:54;5.70;;;5.20;;
10116;SDS011;5098;48.792;9.012;2023-04-30T00:22:20;5.70;;;4.83;;
10116;SDS011;5098;48.792;9.012;2023-04-30T00:24:46;6.17;;;5.63;;
10116;SDS011;5098;48.792;9.012;2023-04-30T00:27:12;5.80;;;5.20;;
10116;SDS011;5098;48.792;9.012;2023-04-30T00:29:38;6.57;;;5.97;;
10116;SDS011;5098;48.792;9.012;2023-04-30T00:32:05;6.40;;;5.60;;
10116;SDS011;5098;48.792;9.012;2023-04-30T00:34:31;5.27;;;4.77;;
10116;SDS011;5098;48.792;9.012;2023-04-30T00:36:57;5.53;;;5.03;;
10116;SDS011;5098;48.792;9.012;2023-04-30T00:39:23;6.50;;;5.77;;
10116;SDS011;5098;48.792;9.012;2023-04-30T00:41:49;6.57;;;5.97;;
10116;SDS011;5098;48.792;9.012;2023-04-30T00:44:15;6.60;;;6.00;;
10116;SDS011;5098;48.792;9.012;2023-04-30T00:46:41;6.20;;;5.60;;
10116;SDS011;5098;48.792;9.012;2023-04-30T00:49:07;6.70;;;6.10;;
10116;SDS011;5098;48.792;9.012;2023-04-30T00:51:34;7.10;;;6.50;;
10116;SDS011;5098;48.792;9.012;2023-04-30T00:54:00;6.77;;;6.17;;
10116;SDS011;5098;48.792;9.012;2023-04-30T00:56:27;7.40;;;6.07;;
10116;SDS011;5098;48.792;9.012;2023-04-30T00:58:55;7.10;;;6.00;;
10116;SDS011;5098;48.792;9.012;2023-04-30T01:01:24;8.43;;;5.87;;
10116;SDS011;5098;48.792;9.012;2023-04-30T01:03:53;6.47;;;5.90;;
10116;SDS011;5098;48.792;9.012;2023-04-30T01:06:19;7.23;;;6.57;;
10116;SDS011;5098;48.792;9.012;2023-04-30T01:08:45;8.77;;;6.80;;
10116;SDS011;5098;48.792;9.012;2023-04-30T01:16:27;6.80;;;6.20;;
10116;SDS011;5098;48.792;9.012;2023-04-30T01:19:03;7.23;;;6.50;;
10116;SDS011;5098;48.792;9.012;2023-04-30T01:21:30;10.17;;;7.83;;
10116;SDS011;5098;48.792;9.012;2023-04-30T01:24:14;7.47;;;6.70;;
10116;SDS011;5098;48.792;9.012;2023-04-30T01:26:58;9.33;;;7.70;;
10116;SDS011;5098;48.792;9.012;2023-04-30T01:29:25;8.10;;;7.30;;
10116;SDS011;5098;48.792;9.012;2023-04-30T01:31:51;9.30;;;8.40;;
10116;SDS011;5098;48.792;9.012;2023-04-30T01:34:17;8.50;;;7.20;;
10116;SDS011;5098;48.792;9.012;2023-04-30T01:39:14;9.37;;;8.47;;
10116;SDS011;5098;48.792;9.012;2023-04-30T01:44:42;10.37;;;8.57;;
10116;SDS011;5098;48.792;9.012;2023-04-30T01:47:47;9.60;;;8.70;;
10116;SDS011;5098;48.792;9.012;2023-04-30T01:52:33;10.47;;;9.30;;
10116;SDS011;5098;48.792;9.012;2023-04-30T01:55:05;10.17;;;9.17;;
10116;SDS011;5098;48.792;9.012;2023-04-30T01:57:35;10.00;;;9.00;;
10116;SDS011;5098;48.792;9.012;2023-04-30T02:00:02;9.83;;;8.77;;
10116;SDS011;5098;48.792;9.012;2023-04-30T02:02:28;11.33;;;9.80;;
10116;SDS011;5098;48.792;9.012;2023-04-30T02:04:55;11.87;;;10.00;;
10116;SDS011;5098;48.792;9.012;2023-04-30T02:10:02;10.20;;;9.17;;
10116;SDS011;5098;48.792;9.012;2023-04-30T02:12:29;10.67;;;9.27;;
10116;SDS011;5098;48.792;9.012;2023-04-30T02:14:55;11.07;;;9.97;;
10116;SDS011;5098;48.792;9.012;2023-04-30T02:17:21;10.50;;;9.40;;
10116;SDS011;5098;48.792;9.012;2023-04-30T02:19:47;9.80;;;8.80;;
10116;SDS011;5098;48.792;9.012;2023-04-30T02:22:13;11.37;;;10.17;;
10116;SDS011;5098;48.792;9.012;2023-04-30T02:24:39;10.67;;;9.60;;
10116;SDS011;5098;48.792;9.012;2023-04-30T02:27:05;10.83;;;9.73;;
10116;SDS011;5098;48.792;9.012;2023-04-30T02:29:31;10.00;;;8.93;;
10116;SDS011;5098;48.792;9.012;2023-04-30T02:31:58;11.40;;;10.30;;
10116;SDS011;5098;48.792;9.012;2023-04-30T02:34:24;11.20;;;9.87;;
10116;SDS011;5098;48.792;9.012;2023-04-30T02:36:50;11.60;;;10.00;;
10116;SDS011;5098;48.792;9.012;2023-04-30T02:39:16;13.33;;;10.53;;
10116;SDS011;5098;48.792;9.012;2023-04-30T02:41:42;11.67;;;10.43;;
10116;SDS011;5098;48.792;9.012;2023-04-30T02:44:08;11.00;;;9.60;;
10116;SDS011;5098;48.792;9.012;2023-04-30T02:46:34;10.87;;;9.53;;
10116;SDS011;5098;48.792;9.012;2023-04-30T02:49:00;10.87;;;9.77;;
10116;SDS011;5098;48.792;9.012;2023-04-30T02:51:26;12.23;;;9.70;;
10116;SDS011;5098;48.792;9.012;2023-04-30T02:53:52;11.00;;;9.90;;
10116;SDS011;5098;48.792;9.012;2023-04-30T02:56:19;14.60;;;10.33;;
10116;SDS011;5098;48.792;9.012;2023-04-30T02:58:45;10.97;;;9.87;;
10116;SDS011;5098;48.792;9.012;2023-04-30T03:01:11;12.33;;;10.07;;
10116;SDS011;5098;48.792;9.012;2023-04-30T03:03:37;10.67;;;9.27;;
10116;SDS011;5098;48.792;9.012;2023-04-30T03:06:03;11.27;;;10.20;;
10116;SDS011;5098;48.792;9.012;2023-04-30T03:08:29;11.17;;;10.17;;
10116;SDS011;5098;48.792;9.012;2023-04-30T03:10:55;11.50;;;9.73;;
10116;SDS011;5098;48.792;9.012;2023-04-30T03:13:21;12.50;;;11.03;;
10116;SDS011;5098;48.792;9.012;2023-04-30T03:15:55;13.13;;;11.23;;
10116;SDS011;5098;48.792;9.012;2023-04-30T03:18:22;11.93;;;10.80;;
10116;SDS011;5098;48.792;9.012;2023-04-30T03:20:48;13.93;;;11.43;;
10116;SDS011;5098;48.792;9.012;2023-04-30T03:23:14;14.03;;;10.90;;
10116;SDS011;5098;48.792;9.012;2023-04-30T03:25:40;11.53;;;10.43;;
10116;SDS011;5098;48.792;9.012;2023-04-30T03:28:06;13.07;;;11.87;;
10116;SDS011;5098;48.792;9.012;2023-04-30T03:30:32;13.00;;;11.30;;
10116;SDS011;5098;48.792;9.012;2023-04-30T03:32:58;14.33;;;12.40;;
10116;SDS011;5098;48.792;9.012;2023-04-30T03:35:25;12.93;;;11.50;;
10116;SDS011;5098;48.792;9.012;2023-04-30T03:37:51;12.17;;;10.83;;
10116;SDS011;5098;48.792;9.012;2023-04-30T03:40:17;12.93;;;11.13;;
10116;SDS011;5098;48.792;9.012;2023-04-30T03:42:43;11.87;;;10.70;;
10116;SDS011;5098;48.792;9.012;2023-04-30T03:45:09;13.10;;;10.50;;
10116;SDS011;5098;48.792;9.012;2023-04-30T03:47:35;12.73;;;10.87;;
10116;SDS011;5098;48.792;9.012;2023-04-30T03:50:02;12.67;;;10.90;;
10116;SDS011;5098;48.792;9.012;2023-04-30T03:52:28;13.33;;;11.43;;
10116;SDS011;5098;48.792;9.012;2023-04-30T03:54:55;12.90;;;11.60;;
10116;SDS011;5098;48.792;9.012;2023-04-30T03:57:21;11.80;;;10.60;;
10116;SDS011;5098;48.792;9.012;2023-04-30T03:59:48;13.07;;;11.67;;
10116;SDS011;5098;48.792;9.012;2023-04-30T04:02:14;13.10;;;11.70;;
10116;SDS011;5098;48.792;9.012;2023-04-30T04:04:41;14.37;;;12.87;;
10116;SDS011;5098;48.792;9.012;2023-04-30T04:07:07;13.57;;;11.83;;
10116;SDS011;5098;48.792;9.012;2023-04-30T04:09:35;14.63;;;11.90;;
10116;SDS011;5098;48.792;9.012;2023-04-30T04:12:01;14.03;;;12.40;;
10116;SDS011;5098;48.792;9.012;2023-04-30T04:14:27;13.50;;;12.20;;
10116;SDS011;5098;48.792;9.012;2023-04-30T04:16:53;14.97;;;13.47;;
10116;SDS011;5098;48.792;9.012;2023-04-30T04:19:19;12.57;;;11.33;;
10116;SDS011;5098;48.792;9.012;2023-04-30T04:21:46;13.13;;;11.83;;
10116;SDS011;5098;48.792;9.012;2023-04-30T04:24:12;12.50;;;10.97;;
10116;SDS011;5098;48.792;9.012;2023-04-30T04:26:38;13.77;;;12.30;;
10116;SDS011;5098;48.792;9.012;2023-04-30T04:29:05;13.90;;;12.50;;
10116;SDS011;5098;48.792;9.012;2023-04-30T04:31:33;13.07;;;11.73;;
10116;SDS011;5098;48.792;9.012;2023-04-30T04:34:00;14.87;;;11.83;;
10116;SDS011;5098;48.792;9.012;2023-04-30T04:36:27;13.20;;;11.43;;
10116;SDS011;5098;48.792;9.012;2023-04-30T04:38:54;13.17;;;11.53;;
10116;SDS011;5098;48.792;9.012;2023-04-30T04:41:21;13.53;;;11.93;;
10116;SDS011;5098;48.792;9.012;2023-04-30T04:43:48;14.20;;;12.17;;
10116;SDS011;5098;48.792;9.012;2023-04-30T04:46:14;14.73;;;12.23;;
10116;SDS011;5098;48.792;9.012;2023-04-30T04:48:41;12.17;;;10.90;;
10116;SDS011;5098;48.792;9.012;2023-04-30T04:51:08;12.73;;;11.37;;
10116;SDS011;5098;48.792;9.012;2023-04-30T04:53:34;14.00;;;11.70;;
10116;SDS011;5098;48.792;9.012;2023-04-30T04:56:01;17.10;;;12.33;;
10116;SDS011;5098;48.792;9.012;2023-04-30T04:58:27;13.47;;;11.73;;
10116;SDS011;5098;48.792;9.012;2023-04-30T05:00:53;12.33;;;11.03;;
10116;SDS011;5098;48.792;9.012;2023-04-30T05:03:19;13.43;;;12.03;;
10116;SDS011;5098;48.792;9.012;2023-04-30T05:05:45;13.83;;;11.13;;
10116;SDS011;5098;48.792;9.012;2023-04-30T05:08:11;14.20;;;11.53;;
10116;SDS011;5098;48.792;9.012;2023-04-30T05:10:37;12.40;;;11.20;;
10116;SDS011;5098;48.792;9.012;2023-04-30T05:13:03;12.43;;;11.00;;
10116;SDS011;5098;48.792;9.012;2023-04-30T05:15:29;15.47;;;11.73;;
10116;SDS011;5098;48.792;9.012;2023-04-30T05:17:55;12.57;;;11.20;;
10116;SDS011;5098;48.792;9.012;2023-04-30T05:20:22;12.87;;;11.57;;
10116;SDS011;5098;48.792;9.012;2023-04-30T05:22:48;11.70;;;10.60;;
10116;SDS011;5098;48.792;9.012;2023-04-30T05:25:14;13.10;;;11.80;;
10116;SDS011;5098;48.792;9.012;2023-04-30T05:27:40;13.70;;;11.37;;
10116;SDS011;5098;48.792;9.012;2023-04-30T05:30:06;12.20;;;10.97;;
10116;SDS011;5098;48.792;9.012;2023-04-30T05:32:33;12.97;;;11.67;;
10116;SDS011;5098;48.792;9.012;2023-04-30T05:34:59;15.30;;;12.70;;
10116;SDS011;5098;48.792;9.012;2023-04-30T05:37:25;17.57;;;11.30;;
10116;SDS011;5098;48.792;9.012;2023-04-30T05:39:52;13.23;;;11.80;;
10116;SDS011;5098;48.792;9.012;2023-04-30T05:42:18;12.37;;;11.10;;
10116;SDS011;5098;48.792;9.012;2023-04-30T05:44:44;12.20;;;11.00;;
10116;SDS011;5098;48.792;9.012;2023-04-30T05:47:11;12.70;;;11.40;;
10116;SDS011;5098;48.792;9.012;2023-04-30T05:49:37;12.50;;;11.30;;
10116;SDS011;5098;48.792;9.012;2023-04-30T05:52:03;20.07;;;12.33;;
10116;SDS011;5098;48.792;9.012;2023-04-30T05:54:29;13.10;;;11.70;;
10116;SDS011;5098;48.792;9.012;2023-04-30T05:56:55;12.73;;;11.33;;
10116;SDS011;5098;48.792;9.012;2023-04-30T05:59:21;12.70;;;11.37;;
10116;SDS011;5098;48.792;9.012;2023-04-30T06:01:47;12.60;;;11.37;;
10116;SDS011;5098;48.792;9.012;2023-04-30T06:04:13;15.13;;;12.17;;
10116;SDS011;5098;48.792;9.012;2023-04-30T06:06:39;15.23;;;12.90;;
10116;SDS011;5098;48.792;9.012;2023-04-30T06:09:05;12.50;;;11.30;;
10116;SDS011;5098;48.792;9.012;2023-04-30T06:11:31;15.67;;;11.87;;
10116;SDS011;5098;48.792;9.012;2023-04-30T06:13:57;13.90;;;12.43;;
10116;SDS011;5098;48.792;9.012;2023-04-30T06:16:24;12.27;;;10.97;;
10116;SDS011;5098;48.792;9.012;2023-04-30T06:18:50;13.17;;;11.77;;
10116;SDS011;5098;48.792;9.012;2023-04-30T06:21:17;12.53;;;11.23;;
10116;SDS011;5098;48.792;9.012;2023-04-30T06:23:44;12.40;;;11.13;;
10116;SDS011;5098;48.792;9.012;2023-04-30T06:26:10;11.20;;;10.10;;
10116;SDS011;5098;48.792;9.012;2023-04-30T06:28:39;12.23;;;11.03;;
10116;SDS011;5098;48.792;9.012;2023-04-30T06:31:05;12.00;;;10.80;;
10116;SDS011;5098;48.792;9.012;2023-04-30T06:33:31;12.67;;;11.37;;
10116;SDS011;5098;48.792;9.012;2023-04-30T06:35:57;11.17;;;10.00;;
10116;SDS011;5098;48.792;9.012;2023-04-30T06:38:23;12.50;;;11.20;;
10116;SDS011;5098;48.792;9.012;2023-04-30T06:40:49;16.37;;;11.20;;
10116;SDS011;5098;48.792;9.012;2023-04-30T06:43:15;13.40;;;12.10;;
10116;SDS011;5098;48.792;9.012;2023-04-30T06:45:42;12.23;;;11.03;;
10116;SDS011;5098;48.792;9.012;2023-04-30T06:48:08;18.20;;;11.63;;
10116;SDS011;5098;48.792;9.012;2023-04-30T06:50:34;12.57;;;11.27;;
10116;SDS011;5098;48.792;9.012;2023-04-30T06:53:07;11.87;;;10.67;;
10116;SDS011;5098;48.792;9.012;2023-04-30T06:55:33;13.47;;;12.07;;
10116;SDS011;5098;48.792;9.012;2023-04-30T06:58:00;11.10;;;9.90;;
10116;SDS011;5098;48.792;9.012;2023-04-30T07:00:26;11.37;;;10.37;;
10116;SDS011;5098;48.792;9.012;2023-04-30T07:02:52;10.27;;;9.27;;
10116;SDS011;5098;48.792;9.012;2023-04-30T07:05:18;10.93;;;9.90;;
10116;SDS011;5098;48.792;9.012;2023-04-30T07:07:44;10.60;;;9.60;;
10116;SDS011;5098;48.792;9.012;2023-04-30T07:10:10;11.60;;;10.40;;
10116;SDS011;5098;48.792;9.012;2023-04-30T07:12:37;10.77;;;9.63;;
10116;SDS011;5098;48.792;9.012;2023-04-30T07:15:03;11.30;;;10.20;;
10116;SDS011;5098;48.792;9.012;2023-04-30T07:17:29;9.60;;;8.73;;
10116;SDS011;5098;48.792;9.012;2023-04-30T07:19:55;10.73;;;9.67;;
10116;SDS011;5098;48.792;9.012;2023-04-30T07:22:21;10.63;;;9.63;;
10116;SDS011;5098;48.792;9.012;2023-04-30T07:24:47;9.53;;;8.63;;
10116;SDS011;5098;48.792;9.012;2023-04-30T07:27:13;10.67;;;9.67;;
10116;SDS011;5098;48.792;9.012;2023-04-30T07:29:40;9.93;;;8.93;;
10116;SDS011;5098;48.792;9.012;2023-04-30T07:32:06;11.13;;;10.03;;
10116;SDS011;5098;48.792;9.012;2023-04-30T07:34:32;9.83;;;9.00;;
10116;SDS011;5098;48.792;9.012;2023-04-30T07:36:58;10.30;;;9.13;;
10116;SDS011;5098;48.792;9.012;2023-04-30T07:39:25;10.63;;;9.63;;
10116;SDS011;5098;48.792;9.012;2023-04-30T07:41:51;9.77;;;8.80;;
10116;SDS011;5098;48.792;9.012;2023-04-30T07:44:17;8.60;;;7.80;;
10116;SDS011;5098;48.792;9.012;2023-04-30T07:46:43;8.90;;;8.10;;
10116;SDS011;5098;48.792;9.012;2023-04-30T07:49:09;9.27;;;7.40;;
10116;SDS011;5098;48.792;9.012;2023-04-30T07:51:35;7.60;;;6.90;;
10116;SDS011;5098;48.792;9.012;2023-04-30T07:54:01;11.57;;;10.37;;
10116;SDS011;5098;48.792;9.012;2023-04-30T07:56:28;8.67;;;7.90;;
10116;SDS011;5098;48.792;9.012;2023-04-30T07:58:54;11.83;;;7.40;;
10116;SDS011;5098;48.792;9.012;2023-04-30T08:01:20;7.07;;;6.47;;
10116;SDS011;5098;48.792;9.012;2023-04-30T08:03:46;7.20;;;6.50;;
10116;SDS011;5098;48.792;9.012;2023-04-30T08:06:12;7.13;;;6.13;;
10116;SDS011;5098;48.792;9.012;2023-04-30T08:08:38;7.60;;;6.77;;
10116;SDS011;5098;48.792;9.012;2023-04-30T08:11:04;7.37;;;6.67;;
10116;SDS011;5098;48.792;9.012;2023-04-30T08:13:30;9.10;;;8.20;;
10116;SDS011;5098;48.792;9.012;2023-04-30T08:15:56;8.40;;;5.93;;
10116;SDS011;5098;48.792;9.012;2023-04-30T08:18:22;7.70;;;7.00;;
10116;SDS011;5098;48.792;9.012;2023-04-30T08:20:48;11.03;;;8.83;;
10116;SDS011;5098;48.792;9.012;2023-04-30T08:23:14;7.03;;;6.43;;
10116;SDS011;5098;48.792;9.012;2023-04-30T08:25:41;7.23;;;6.63;;
10116;SDS011;5098;48.792;9.012;2023-04-30T08:28:07;10.30;;;9.30;;
10116;SDS011;5098;48.792;9.012;2023-04-30T08:30:33;8.50;;;7.70;;
10116;SDS011;5098;48.792;9.012;2023-04-30T08:32:59;8.20;;;7.40;;
10116;SDS011;5098;48.792;9.012;2023-04-30T08:35:25;6.43;;;5.83;;
10116;SDS011;5098;48.792;9.012;2023-04-30T08:37:53;7.00;;;6.30;;
10116;SDS011;5098;48.792;9.012;2023-04-30T08:40:19;7.53;;;6.83;;
10116;SDS011;5098;48.792;9.012;2023-04-30T08:42:49;7.13;;;6.53;;
10116;SDS011;5098;48.792;9.012;2023-04-30T08:45:18;7.53;;;6.80;;
10116;SDS011;5098;48.792;9.012;2023-04-30T08:47:44;6.13;;;5.60;;
10116;SDS011;5098;48.792;9.012;2023-04-30T08:50:11;6.17;;;5.63;;
10116;SDS011;5098;48.792;9.012;2023-04-30T08:52:37;5.67;;;5.13;;
10116;SDS011;5098;48.792;9.012;2023-04-30T08:55:06;5.93;;;5.30;;
10116;SDS011;5098;48.792;9.012;2023-04-30T08:57:32;6.17;;;5.00;;
10116;SDS011;5098;48.792;9.012;2023-04-30T08:59:59;6.20;;;5.60;;
10116;SDS011;5098;48.792;9.012;2023-04-30T09:02:25;5.77;;;5.27;;
10116;SDS011;5098;48.792;9.012;2023-04-30T09:04:51;7.20;;;6.20;;
10116;SDS011;5098;48.792;9.012;2023-04-30T09:07:17;9.07;;;8.20;;
10116;SDS011;5098;48.792;9.012;2023-04-30T09:09:43;4.53;;;4.13;;
10116;SDS011;5098;48.792;9.012;2023-04-30T09:12:10;5.90;;;5.20;;
10116;SDS011;5098;48.792;9.012;2023-04-30T09:14:37;6.57;;;5.90;;
10116;SDS011;5098;48.792;9.012;2023-04-30T09:17:04;6.20;;;5.17;;
10116;SDS011;5098;48.792;9.012;2023-04-30T09:19:31;5.57;;;5.07;;
10116;SDS011;5098;48.792;9.012;2023-04-30T09:21:58;5.13;;;3.97;;
10116;SDS011;5098;48.792;9.012;2023-04-30T09:24:24;7.33;;;4.27;;
10116;SDS011;5098;48.792;9.012;2023-04-30T09:26:50;4.83;;;4.07;;
10116;SDS011;5098;48.792;9.012;2023-04-30T09:29:16;3.90;;;3.60;;
10116;SDS011;5098;48.792;9.012;2023-04-30T09:31:43;5.07;;;4.27;;
10116;SDS011;5098;48.792;9.012;2023-04-30T09:34:11;4.40;;;4.00;;
10116;SDS011;5098;48.792;9.012;2023-04-30T09:36:37;4.00;;;3.23;;
10116;SDS011;5098;48.792;9.012;2023-04-30T09:39:17;4.80;;;3.77;;
10116;SDS011;5098;48.792;9.012;2023-04-30T09:41:43;4.20;;;3.70;;
10116;SDS011;5098;48.792;9.012;2023-04-30T09:44:29;6.53;;;3.97;;
10116;SDS011;5098;48.792;9.012;2023-04-30T09:46:55;4.70;;;3.90;;
10116;SDS011;5098;48.792;9.012;2023-04-30T09:49:22;3.83;;;3.50;;
10116;SDS011;5098;48.792;9.012;2023-04-30T09:51:55;5.10;;;4.60;;
10116;SDS011;5098;48.792;9.012;2023-04-30T09:54:23;5.43;;;4.93;;
10116;SDS011;5098;48.792;9.012;2023-04-30T09:56:51;5.10;;;4.60;;
10116;SDS011;5098;48.792;9.012;2023-04-30T09:59:19;4.23;;;3.83;;
10116;SDS011;5098;48.792;9.012;2023-04-30T10:01:47;4.97;;;4.17;;
10116;SDS011;5098;48.792;9.012;2023-04-30T10:04:14;4.37;;;3.97;;
10116;SDS011;5098;48.792;9.012;2023-04-30T10:06:41;4.87;;;4.47;;
10116;SDS011;5098;48.792;9.012;2023-04-30T10:09:07;3.70;;;3.40;;
10116;SDS011;5098;48.792;9.012;2023-04-30T10:11:35;3.80;;;3.10;;
10116;SDS011;5098;48.792;9.012;2023-04-30T10:14:03;4.83;;;3.80;;
10116;SDS011;5098;48.792;9.012;2023-04-30T10:18:58;3.93;;;3.60;;
10116;SDS011;5098;48.792;9.012;2023-04-30T10:21:25;3.17;;;2.90;;
10116;SDS011;5098;48.792;9.012;2023-04-30T10:23:52;3.27;;;2.97;;
10116;SDS011;5098;48.792;9.012;2023-04-30T10:26:19;4.20;;;3.47;;
10116;SDS011;5098;48.792;9.012;2023-04-30T10:28:45;4.43;;;3.60;;
10116;SDS011;5098;48.792;9.012;2023-04-30T10:31:13;3.80;;;3.50;;
10116;SDS011;5098;48.792;9.012;2023-04-30T10:33:48;4.40;;;4.10;;
10116;SDS011;5098;48.792;9.012;2023-04-30T10:36:30;4.37;;;3.90;;
10116;SDS011;5098;48.792;9.012;2023-04-30T10:38:58;4.23;;;3.83;;
10116;SDS011;5098;48.792;9.012;2023-04-30T10:41:25;4.33;;;3.93;;
10116;SDS011;5098;48.792;9.012;2023-04-30T10:43:56;5.10;;;2.87;;
10116;SDS011;5098;48.792;9.012;2023-04-30T10:46:24;4.70;;;3.83;;
10116;SDS011;5098;48.792;9.012;2023-04-30T10:48:54;5.10;;;4.30;;
10116;SDS011;5098;48.792;9.012;2023-04-30T10:51:20;4.13;;;3.50;;
10116;SDS011;5098;48.792;9.012;2023-04-30T10:53:50;3.67;;;3.37;;
10116;SDS011;5098;48.792;9.012;2023-04-30T10:56:32;4.50;;;3.97;;
10116;SDS011;5098;48.792;9.012;2023-04-30T10:58:59;4.67;;;3.90;;
10116;SDS011;5098;48.792;9.012;2023-04-30T11:01:26;4.57;;;3.60;;
10116;SDS011;5098;48.792;9.012;2023-04-30T11:04:08;5.20;;;4.07;;
10116;SDS011;5098;48.792;9.012;2023-04-30T11:06:47;4.33;;;3.80;;
10116;SDS011;5098;48.792;9.012;2023-04-30T11:09:14;4.27;;;3.87;;
10116;SDS011;5098;48.792;9.012;2023-04-30T11:11:42;4.33;;;3.90;;
10116;SDS011;5098;48.792;9.012;2023-04-30T11:14:10;5.40;;;3.83;;
10116;SDS011;5098;48.792;9.012;2023-04-30T11:16:36;3.97;;;3.57;;
10116;SDS011;5098;48.792;9.012;2023-04-30T11:19:06;4.50;;;3.47;;
10116;SDS011;5098;48.792;9.012;2023-04-30T11:21:32;4.87;;;4.47;;
10116;SDS011;5098;48.792;9.012;2023-04-30T11:24:02;4.73;;;4.33;;
10116;SDS011;5098;48.792;9.012;2023-04-30T11:26:28;4.40;;;4.00;;
10116;SDS011;5098;48.792;9.012;2023-04-30T11:28:54;3.87;;;3.47;;
10116;SDS011;5098;48.792;9.012;2023-04-30T11:31:21;4.43;;;4.10;;
10116;SDS011;5098;48.792;9.012;2023-04-30T11:33:47;4.93;;;4.17;;
10116;SDS011;5098;48.792;9.012;2023-04-30T11:36:13;5.27;;;3.57;;
10116;SDS011;5098;48.792;9.012;2023-04-30T11:38:41;4.83;;;3.63;;
10116;SDS011;5098;48.792;9.012;2023-04-30T11:41:07;3.87;;;3.57;;
10116;SDS011;5098;48.792;9.012;2023-04-30T11:43:36;6.97;;;4.40;;
10116;SDS011;5098;48.792;9.012;2023-04-30T11:46:09;4.30;;;3.90;;
10116;SDS011;5098;48.792;9.012;2023-04-30T11:48:39;3.60;;;3.30;;
10116;SDS011;5098;48.792;9.012;2023-04-30T11:51:19;5.00;;;3.30;;
10116;SDS011;5098;48.792;9.012;2023-04-30T11:53:46;5.13;;;3.87;;
10116;SDS011;5098;48.792;9.012;2023-04-30T11:56:12;4.67;;;4.27;;
10116;SDS011;5098;48.792;9.012;2023-04-30T11:58:39;3.70;;;3.40;;
10116;SDS011;5098;48.792;9.012;2023-04-30T12:01:07;4.53;;;4.07;;
10116;SDS011;5098;48.792;9.012;2023-04-30T12:03:41;4.53;;;4.00;;
10116;SDS011;5098;48.792;9.012;2023-04-30T12:06:11;4.30;;;3.90;;
10116;SDS011;5098;48.792;9.012;2023-04-30T12:08:39;4.17;;;3.83;;
10116;SDS011;5098;48.792;9.012;2023-04-30T12:11:17;5.40;;;4.27;;
10116;SDS011;5098;48.792;9.012;2023-04-30T12:13:48;4.60;;;4.20;;
10116;SDS011;5098;48.792;9.012;2023-04-30T12:16:14;4.23;;;3.63;;
10116;SDS011;5098;48.792;9.012;2023-04-30T12:18:41;4.40;;;4.00;;
10116;SDS011;5098;48.792;9.012;2023-04-30T12:21:07;4.60;;;4.20;;
10116;SDS011;5098;48.792;9.012;2023-04-30T12:23:33;4.67;;;3.43;;
10116;SDS011;5098;48.792;9.012;2023-04-30T12:26:00;3.57;;;3.27;;
10116;SDS011;5098;48.792;9.012;2023-04-30T12:28:26;4.20;;;3.57;;
10116;SDS011;5098;48.792;9.012;2023-04-30T12:30:52;3.77;;;3.43;;
10116;SDS011;5098;48.792;9.012;2023-04-30T12:33:19;3.57;;;3.27;;
10116;SDS011;5098;48.792;9.012;2023-04-30T12:35:45;3.53;;;3.23;;
10116;SDS011;5098;48.792;9.012;2023-04-30T12:38:12;4.20;;;3.80;;
10116;SDS011;5098;48.792;9.012;2023-04-30T12:40:45;4.03;;;3.57;;
10116;SDS011;5098;48.792;9.012;2023-04-30T12:43:13;4.20;;;3.77;;
10116;SDS011;5098;48.792;9.012;2023-04-30T12:48:12;4.83;;;3.73;;
10116;SDS011;5098;48.792;9.012;2023-04-30T12:50:38;3.53;;;3.23;;
10116;SDS011;5098;48.792;9.012;2023-04-30T12:53:04;4.27;;;3.70;;
10116;SDS011;5098;48.792;9.012;2023-04-30T12:55:31;3.93;;;3.63;;
10116;SDS011;5098;48.792;9.012;2023-04-30T12:58:14;4.17;;;3.87;;
10116;SDS011;5098;48.792;9.012;2023-04-30T13:00:49;4.17;;;3.67;;
10116;SDS011;5098;48.792;9.012;2023-04-30T13:03:17;3.50;;;3.20;;
10116;SDS011;5098;48.792;9.012;2023-04-30T13:05:48;4.87;;;3.40;;
10116;SDS011;5098;48.792;9.012;2023-04-30T13:08:14;4.37;;;3.27;;
10116;SDS011;5098;48.792;9.012;2023-04-30T13:10:40;4.80;;;4.10;;
10116;SDS011;5098;48.792;9.012;2023-04-30T13:13:07;3.83;;;3.53;;
10116;SDS011;5098;48.792;9.012;2023-04-30T13:15:33;4.10;;;3.70;;
10116;SDS011;5098;48.792;9.012;2023-04-30T13:17:59;3.90;;;3.50;;
10116;SDS011;5098;48.792;9.012;2023-04-30T13:20:25;3.90;;;3.53;;
10116;SDS011;5098;48.792;9.012;2023-04-30T13:22:51;4.33;;;3.50;;
10116;SDS011;5098;48.792;9.012;2023-04-30T13:25:18;5.20;;;3.83;;
10116;SDS011;5098;48.792;9.012;2023-04-30T13:27:44;4.77;;;4.27;;
10116;SDS011;5098;48.792;9.012;2023-04-30T13:30:10;4.03;;;3.63;;
10116;SDS011;5098;48.792;9.012;2023-04-30T13:32:36;3.70;;;3.40;;
10116;SDS011;5098;48.792;9.012;2023-04-30T13:35:02;4.53;;;3.80;;
10116;SDS011;5098;48.792;9.012;2023-04-30T13:37:29;4.13;;;3.83;;
10116;SDS011;5098;48.792;9.012;2023-04-30T13:39:56;3.73;;;3.43;;
10116;SDS011;5098;48.792;9.012;2023-04-30T13:42:24;4.10;;;3.43;;
10116;SDS011;5098;48.792;9.012;2023-04-30T13:44:50;3.60;;;3.30;;
10116;SDS011;5098;48.792;9.012;2023-04-30T13:47:16;4.50;;;4.10;;
10116;SDS011;5098;48.792;9.012;2023-04-30T13:49:43;4.77;;;4.30;;
10116;SDS011;5098;48.792;9.012;2023-04-30T13:52:09;5.37;;;3.30;;
10116;SDS011;5098;48.792;9.012;2023-04-30T13:54:35;4.20;;;3.33;;
10116;SDS011;5098;48.792;9.012;2023-04-30T13:57:02;4.23;;;3.83;;
10116;SDS011;5098;48.792;9.012;2023-04-30T13:59:28;4.27;;;3.97;;
10116;SDS011;5098;48.792;9.012;2023-04-30T14:01:55;4.40;;;3.80;;
10116;SDS011;5098;48.792;9.012;2023-04-30T14:04:21;3.63;;;3.33;;
10116;SDS011;5098;48.792;9.012;2023-04-30T14:06:47;3.33;;;3.03;;
10116;SDS011;5098;48.792;9.012;2023-04-30T14:09:13;3.83;;;3.13;;
10116;SDS011;5098;48.792;9.012;2023-04-30T14:11:40;3.53;;;3.27;;
10116;SDS011;5098;48.792;9.012;2023-04-30T14:14:07;3.80;;;3.50;;
10116;SDS011;5098;48.792;9.012;2023-04-30T14:16:33;4.10;;;3.57;;
10116;SDS011;5098;48.792;9.012;2023-04-30T14:18:59;3.53;;;3.20;;
10116;SDS011;5098;48.792;9.012;2023-04-30T14:21:25;4.10;;;3.70;;
10116;SDS011;5098;48.792;9.012;2023-04-30T14:23:52;3.40;;;3.10;;
10116;SDS011;5098;48.792;9.012;2023-04-30T14:26:18;4.93;;;3.67;;
10116;SDS011;5098;48.792;9.012;2023-04-30T14:28:45;4.13;;;3.47;;
10116;SDS011;5098;48.792;9.012;2023-04-30T14:31:11;3.77;;;3.37;;
10116;SDS011;5098;48.792;9.012;2023-04-30T14:33:37;3.80;;;3.50;;
10116;SDS011;5098;48.792;9.012;2023-04-30T14:36:04;7.73;;;3.43;;
10116;SDS011;5098;48.792;9.012;2023-04-30T14:38:30;3.10;;;2.80;;
10116;SDS011;5098;48.792;9.012;2023-04-30T14:40:56;3.37;;;3.07;;
10116;SDS011;5098;48.792;9.012;2023-04-30T14:43:22;4.10;;;3.53;;
10116;SDS011;5098;48.792;9.012;2023-04-30T14:45:49;3.30;;;3.10;;
10116;SDS011;5098;48.792;9.012;2023-04-30T14:48:15;7.50;;;2.80;;
10116;SDS011;5098;48.792;9.012;2023-04-30T14:50:42;4.87;;;3.17;;
10116;SDS011;5098;48.792;9.012;2023-04-30T14:53:08;3.53;;;3.23;;
10116;SDS011;5098;48.792;9.012;2023-04-30T14:55:35;3.30;;;2.83;;
10116;SDS011;5098;48.792;9.012;2023-04-30T14:58:01;3.50;;;3.20;;
10116;SDS011;5098;48.792;9.012;2023-04-30T15:00:28;2.87;;;2.67;;
10116;SDS011;5098;48.792;9.012;2023-04-30T15:02:54;4.80;;;3.10;;
10116;SDS011;5098;48.792;9.012;2023-04-30T15:05:20;3.90;;;3.60;;
10116;SDS011;5098;48.792;9.012;2023-04-30T15:07:46;3.80;;;3.50;;
10116;SDS011;5098;48.792;9.012;2023-04-30T15:10:12;3.87;;;3.57;;
10116;SDS011;5098;48.792;9.012;2023-04-30T15:12:38;4.00;;;3.60;;